sensor_id;sensor_type;location;lat;lon;timestamp;pressure;altitude;pressure_sealevel;temperature;humidity
73085;BME280;62974;49.460;10.892;2024-02-21T00:01:53;98624.06;;;6.42;100.00
73085;BME280;62974;49.460;10.892;2024-02-21T00:04:20;98628.53;;;6.59;100.00
73085;BME280;62974;49.460;10.892;2024-02-21T00:06:48;98628.03;;;6.38;100.00
73085;BME280;62974;49.460;10.892;2024-02-21T00:09:16;98614.69;;;6.55;100.00
73085;BME280;62974;49.460;10.892;2024-02-21T00:11:47;98617.81;;;6.51;100.00
73085;BME280;62974;49.460;10.892;2024-02-21T00:14:16;98614.81;;;6.54;100.00
73085;BME280;62974;49.460;10.892;2024-02-21T00:16:44;98604.84;;;6.56;100.00
73085;BME280;62974;49.460;10.892;2024-02-21T00:19:11;98610.59;;;6.43;100.00
73085;BME280;62974;49.460;10.892;2024-02-21T00:21:41;98615.97;;;6.51;100.00
73085;BME280;62974;49.460;10.892;2024-02-21T00:24:10;98604.78;;;6.48;100.00
73085;BME280;62974;49.460;10.892;2024-02-21T00:26:41;98594.06;;;6.66;100.00
73085;BME280;62974;49.460;10.892;2024-02-21T00:29:10;98596.16;;;6.54;100.00
73085;BME280;62974;49.460;10.892;2024-02-21T00:31:39;98596.06;;;6.64;100.00
73085;BME280;62974;49.460;10.892;2024-02-21T00:34:08;98595.06;;;6.65;100.00
73085;BME280;62974;49.460;10.892;2024-02-21T00:36:36;98596.16;;;6.54;100.00
73085;BME280;62974;49.460;10.892;2024-02-21T00:39:04;98594.00;;;6.57;100.00
73085;BME280;62974;49.460;10.892;2024-02-21T00:41:32;98592.19;;;6.58;100.00
73085;BME280;62974;49.460;10.892;2024-02-21T00:44:00;98587.88;;;6.65;100.00
73085;BME280;62974;49.460;10.892;2024-02-21T00:46:28;98584.09;;;6.68;100.00
73085;BME280;62974;49.460;10.892;2024-02-21T00:48:57;98582.34;;;6.58;100.00
73085;BME280;62974;49.460;10.892;2024-02-21T00:51:25;98574.81;;;6.54;100.00
73085;BME280;62974;49.460;10.892;2024-02-21T00:53:52;98577.69;;;6.60;100.00
73085;BME280;62974;49.460;10.892;2024-02-21T00:56:20;98574.81;;;6.54;100.00
73085;BME280;62974;49.460;10.892;2024-02-21T00:58:48;98569.16;;;6.57;100.00
73085;BME280;62974;49.460;10.892;2024-02-21T01:01:21;98563.16;;;6.55;100.00
73085;BME280;62974;49.460;10.892;2024-02-21T01:03:49;98559.38;;;6.66;100.00
73085;BME280;62974;49.460;10.892;2024-02-21T01:06:19;98555.72;;;6.67;100.00
73085;BME280;62974;49.460;10.892;2024-02-21T01:08:47;98553.69;;;6.60;100.00
73085;BME280;62974;49.460;10.892;2024-02-21T01:11:15;98539.84;;;6.65;100.00
73085;BME280;62974;49.460;10.892;2024-02-21T01:13:44;98544.94;;;6.50;100.00
73085;BME280;62974;49.460;10.892;2024-02-21T01:16:11;98536.31;;;6.56;100.00
73085;BME280;62974;49.460;10.892;2024-02-21T01:18:39;98539.50;;;6.60;100.00
73085;BME280;62974;49.460;10.892;2024-02-21T01:21:08;98534.97;;;6.52;100.00
73085;BME280;62974;49.460;10.892;2024-02-21T01:23:40;98536.41;;;6.47;100.00
73085;BME280;62974;49.460;10.892;2024-02-21T01:26:08;98528.09;;;6.50;100.00
73085;BME280;62974;49.460;10.892;2024-02-21T01:28:39;98527.75;;;6.45;100.00
73085;BME280;62974;49.460;10.892;2024-02-21T01:31:07;98527.41;;;6.48;100.00
73085;BME280;62974;49.460;10.892;2024-02-21T01:33:35;98524.09;;;6.54;100.00
73085;BME280;62974;49.460;10.892;2024-02-21T01:36:05;98525.88;;;6.45;100.00
73085;BME280;62974;49.460;10.892;2024-02-21T01:38:34;98521.06;;;6.49;100.00
73085;BME280;62974;49.460;10.892;2024-02-21T01:41:03;98515.72;;;6.49;100.00
73085;BME280;62974;49.460;10.892;2024-02-21T01:43:31;98513.44;;;6.54;100.00
73085;BME280;62974;49.460;10.892;2024-02-21T01:45:59;98508.38;;;6.43;100.00
73085;BME280;62974;49.460;10.892;2024-02-21T01:48:27;98502.75;;;6.54;100.00
73085;BME280;62974;49.460;10.892;2024-02-21T01:50:56;98505.09;;;6.57;100.00
73085;BME280;62974;49.460;10.892;2024-02-21T01:53:28;98504.59;;;6.53;100.00
73085;BME280;62974;49.460;10.892;2024-02-21T01:55:57;98499.38;;;6.44;100.00
73085;BME280;62974;49.460;10.892;2024-02-21T01:58:27;98497.94;;;6.57;100.00
73085;BME280;62974;49.460;10.892;2024-02-21T02:00:56;98497.91;;;6.49;100.00
73085;BME280;62974;49.460;10.892;2024-02-21T02:03:24;98496.75;;;6.52;100.00
73085;BME280;62974;49.460;10.892;2024-02-21T02:05:53;98503.94;;;6.51;100.00
73085;BME280;62974;49.460;10.892;2024-02-21T02:08:21;98491.94;;;6.30;100.00
73085;BME280;62974;49.460;10.892;2024-02-21T02:10:49;98498.28;;;6.54;100.00
73085;BME280;62974;49.460;10.892;2024-02-21T02:13:23;98489.31;;;6.38;100.00
73085;BME280;62974;49.460;10.892;2024-02-21T02:15:56;98489.38;;;6.46;100.00
73085;BME280;62974;49.460;10.892;2024-02-21T02:18:24;98490.59;;;6.51;100.00
73085;BME280;62974;49.460;10.892;2024-02-21T02:20:52;98483.16;;;6.37;100.00
73085;BME280;62974;49.460;10.892;2024-02-21T02:23:24;98474.81;;;6.32;100.00
73085;BME280;62974;49.460;10.892;2024-02-21T02:25:52;98478.88;;;6.44;100.00
73085;BME280;62974;49.460;10.892;2024-02-21T02:28:22;98474.78;;;6.58;100.00
73085;BME280;62974;49.460;10.892;2024-02-21T02:30:50;98464.19;;;6.40;100.00
73085;BME280;62974;49.460;10.892;2024-02-21T02:33:19;98459.38;;;6.44;100.00
73085;BME280;62974;49.460;10.892;2024-02-21T02:35:47;98464.00;;;6.42;100.00
73085;BME280;62974;49.460;10.892;2024-02-21T02:38:14;98449.88;;;6.49;100.00
73085;BME280;62974;49.460;10.892;2024-02-21T02:40:43;98437.22;;;6.51;100.00
73085;BME280;62974;49.460;10.892;2024-02-21T02:43:12;98436.53;;;6.49;100.00
73085;BME280;62974;49.460;10.892;2024-02-21T02:45:39;98438.06;;;6.52;100.00
73085;BME280;62974;49.460;10.892;2024-02-21T02:48:08;98440.00;;;6.42;100.00
73085;BME280;62974;49.460;10.892;2024-02-21T02:50:35;98426.00;;;6.40;100.00
73085;BME280;62974;49.460;10.892;2024-02-21T02:53:03;98423.66;;;6.37;100.00
73085;BME280;62974;49.460;10.892;2024-02-21T02:55:31;98412.16;;;6.10;100.00
73085;BME280;62974;49.460;10.892;2024-02-21T02:58:00;98409.94;;;6.32;100.00
73085;BME280;62974;49.460;10.892;2024-02-21T03:00:27;98413.28;;;6.34;100.00
73085;BME280;62974;49.460;10.892;2024-02-21T03:02:55;98405.66;;;6.39;100.00
73085;BME280;62974;49.460;10.892;2024-02-21T03:05:23;98410.94;;;6.31;100.00
73085;BME280;62974;49.460;10.892;2024-02-21T03:07:51;98407.31;;;6.40;100.00
73085;BME280;62974;49.460;10.892;2024-02-21T03:10:19;98427.63;;;6.33;100.00
73085;BME280;62974;49.460;10.892;2024-02-21T03:12:47;98425.22;;;6.22;100.00
73085;BME280;62974;49.460;10.892;2024-02-21T03:15:16;98418.78;;;6.32;100.00
73085;BME280;62974;49.460;10.892;2024-02-21T03:17:44;98414.69;;;6.12;100.00
73085;BME280;62974;49.460;10.892;2024-02-21T03:20:12;98411.47;;;6.34;100.00
73085;BME280;62974;49.460;10.892;2024-02-21T03:22:40;98405.97;;;6.36;100.00
73085;BME280;62974;49.460;10.892;2024-02-21T03:25:08;98408.41;;;6.29;100.00
73085;BME280;62974;49.460;10.892;2024-02-21T03:27:36;98399.16;;;6.41;100.00
73085;BME280;62974;49.460;10.892;2024-02-21T03:30:05;98402.28;;;6.03;100.00
73085;BME280;62974;49.460;10.892;2024-02-21T03:32:34;98397.09;;;6.27;100.00
73085;BME280;62974;49.460;10.892;2024-02-21T03:35:02;98398.16;;;6.42;100.00
73085;BME280;62974;49.460;10.892;2024-02-21T03:37:30;98398.13;;;6.34;100.00
73085;BME280;62974;49.460;10.892;2024-02-21T03:39:58;98402.53;;;6.18;100.00
73085;BME280;62974;49.460;10.892;2024-02-21T03:42:26;98399.09;;;6.33;100.00
73085;BME280;62974;49.460;10.892;2024-02-21T03:44:56;98401.25;;;6.30;100.00
73085;BME280;62974;49.460;10.892;2024-02-21T03:47:23;98403.59;;;6.25;100.00
73085;BME280;62974;49.460;10.892;2024-02-21T03:49:52;98395.09;;;6.29;100.00
73085;BME280;62974;49.460;10.892;2024-02-21T03:52:20;98390.44;;;6.31;100.00
73085;BME280;62974;49.460;10.892;2024-02-21T03:54:48;98392.81;;;6.42;100.00
73085;BME280;62974;49.460;10.892;2024-02-21T03:57:16;98387.31;;;6.36;100.00
73085;BME280;62974;49.460;10.892;2024-02-21T03:59:45;98379.78;;;6.31;100.00
73085;BME280;62974;49.460;10.892;2024-02-21T04:02:13;98379.44;;;6.34;100.00
73085;BME280;62974;49.460;10.892;2024-02-21T04:04:43;98364.63;;;6.32;100.00
73085;BME280;62974;49.460;10.892;2024-02-21T04:07:14;98369.78;;;6.33;100.00
73085;BME280;62974;49.460;10.892;2024-02-21T04:09:42;98370.97;;;6.39;100.00
73085;BME280;62974;49.460;10.892;2024-02-21T04:12:10;98361.94;;;6.32;100.00
73085;BME280;62974;49.460;10.892;2024-02-21T04:14:37;98359.03;;;6.17;100.00
73085;BME280;62974;49.460;10.892;2024-02-21T04:17:08;98361.53;;;6.19;100.00
73085;BME280;62974;49.460;10.892;2024-02-21T04:19:36;98362.72;;;6.16;100.00
73085;BME280;62974;49.460;10.892;2024-02-21T04:22:05;98363.13;;;6.03;100.00
73085;BME280;62974;49.460;10.892;2024-02-21T04:24:34;98359.06;;;6.25;100.00
73085;BME280;62974;49.460;10.892;2024-02-21T04:27:02;98345.91;;;6.24;100.00
73085;BME280;62974;49.460;10.892;2024-02-21T04:29:30;98351.59;;;6.29;100.00
73085;BME280;62974;49.460;10.892;2024-02-21T04:31:58;98334.78;;;6.28;100.00
73085;BME280;62974;49.460;10.892;2024-02-21T04:34:25;98326.56;;;6.22;100.00
73085;BME280;62974;49.460;10.892;2024-02-21T04:36:53;98333.13;;;6.35;100.00
73085;BME280;62974;49.460;10.892;2024-02-21T04:39:21;98317.50;;;6.06;100.00
73085;BME280;62974;49.460;10.892;2024-02-21T04:41:50;98307.94;;;5.96;100.00
73085;BME280;62974;49.460;10.892;2024-02-21T04:44:18;98298.66;;;6.00;100.00
73085;BME280;62974;49.460;10.892;2024-02-21T04:46:48;98312.19;;;6.14;100.00
73085;BME280;62974;49.460;10.892;2024-02-21T04:49:16;98297.06;;;6.23;100.00
73085;BME280;62974;49.460;10.892;2024-02-21T04:51:44;98308.09;;;6.28;100.00
73085;BME280;62974;49.460;10.892;2024-02-21T04:54:11;98290.09;;;5.88;100.00
73085;BME280;62974;49.460;10.892;2024-02-21T04:56:39;98287.72;;;6.19;100.00
73085;BME280;62974;49.460;10.892;2024-02-21T04:59:08;98295.25;;;6.24;100.00
73085;BME280;62974;49.460;10.892;2024-02-21T05:01:36;98283.81;;;6.05;100.00
73085;BME280;62974;49.460;10.892;2024-02-21T05:04:04;98288.59;;;6.28;100.00
73085;BME280;62974;49.460;10.892;2024-02-21T05:06:37;98288.25;;;6.31;100.00
73085;BME280;62974;49.460;10.892;2024-02-21T05:09:05;98290.41;;;6.27;100.00
73085;BME280;62974;49.460;10.892;2024-02-21T05:11:33;98275.25;;;6.28;100.00
73085;BME280;62974;49.460;10.892;2024-02-21T05:14:01;98250.78;;;5.90;100.00
73085;BME280;62974;49.460;10.892;2024-02-21T05:16:31;98260.50;;;6.07;100.00
73085;BME280;62974;49.460;10.892;2024-02-21T05:18:59;98264.56;;;6.20;100.00
73085;BME280;62974;49.460;10.892;2024-02-21T05:21:26;98268.25;;;6.27;100.00
73085;BME280;62974;49.460;10.892;2024-02-21T05:23:54;98262.25;;;6.25;100.00
73085;BME280;62974;49.460;10.892;2024-02-21T05:26:22;98260.22;;;6.19;100.00
73085;BME280;62974;49.460;10.892;2024-02-21T05:28:50;98259.72;;;6.15;100.00
73085;BME280;62974;49.460;10.892;2024-02-21T05:31:18;98261.06;;;6.19;100.00
73085;BME280;62974;49.460;10.892;2024-02-21T05:33:47;98264.38;;;6.21;100.00
73085;BME280;62974;49.460;10.892;2024-02-21T05:36:15;98267.59;;;6.25;100.00
73085;BME280;62974;49.460;10.892;2024-02-21T05:38:43;98262.53;;;6.13;100.00
73085;BME280;62974;49.460;10.892;2024-02-21T05:41:10;98258.25;;;6.21;100.00
73085;BME280;62974;49.460;10.892;2024-02-21T05:43:38;98251.72;;;6.15;100.00
73085;BME280;62974;49.460;10.892;2024-02-21T05:46:06;98260.25;;;6.27;100.00
73085;BME280;62974;49.460;10.892;2024-02-21T05:48:34;98254.38;;;6.15;100.00
73085;BME280;62974;49.460;10.892;2024-02-21T05:51:06;98246.88;;;6.19;100.00
73085;BME280;62974;49.460;10.892;2024-02-21T05:53:34;98258.56;;;6.26;100.00
73085;BME280;62974;49.460;10.892;2024-02-21T05:56:03;98249.72;;;6.09;100.00
73085;BME280;62974;49.460;10.892;2024-02-21T05:58:31;98255.00;;;6.01;100.00
73085;BME280;62974;49.460;10.892;2024-02-21T06:00:59;98254.50;;;6.05;100.00
73085;BME280;62974;49.460;10.892;2024-02-21T06:03:28;98254.34;;;6.07;100.00
73085;BME280;62974;49.460;10.892;2024-02-21T06:05:56;98255.63;;;5.95;100.00
73085;BME280;62974;49.460;10.892;2024-02-21T06:08:25;98245.63;;;5.89;100.00
73085;BME280;62974;49.460;10.892;2024-02-21T06:10:53;98257.78;;;5.91;100.00
73085;BME280;62974;49.460;10.892;2024-02-21T06:13:21;98250.63;;;5.92;100.00
73085;BME280;62974;49.460;10.892;2024-02-21T06:15:49;98249.16;;;6.05;100.00
73085;BME280;62974;49.460;10.892;2024-02-21T06:18:17;98249.00;;;6.07;100.00
73085;BME280;62974;49.460;10.892;2024-02-21T06:20:44;98243.97;;;5.96;100.00
73085;BME280;62974;49.460;10.892;2024-02-21T06:23:12;98248.47;;;5.95;100.00
73085;BME280;62974;49.460;10.892;2024-02-21T06:25:41;98243.50;;;5.75;100.00
73085;BME280;62974;49.460;10.892;2024-02-21T06:28:09;98247.50;;;5.96;100.00
73085;BME280;62974;49.460;10.892;2024-02-21T06:30:37;98255.47;;;5.96;100.00
73085;BME280;62974;49.460;10.892;2024-02-21T06:33:05;98252.78;;;5.88;100.00
73085;BME280;62974;49.460;10.892;2024-02-21T06:35:34;98260.47;;;5.99;100.00
73085;BME280;62974;49.460;10.892;2024-02-21T06:38:04;98264.00;;;5.74;100.00
73085;BME280;62974;49.460;10.892;2024-02-21T06:40:32;98270.16;;;5.75;100.00
73085;BME280;62974;49.460;10.892;2024-02-21T06:43:06;98262.53;;;5.80;100.00
73085;BME280;62974;49.460;10.892;2024-02-21T06:45:36;98259.53;;;5.49;100.00
73085;BME280;62974;49.460;10.892;2024-02-21T06:48:04;98240.53;;;5.78;100.00
73085;BME280;62974;49.460;10.892;2024-02-21T06:50:32;98243.88;;;5.80;100.00
73085;BME280;62974;49.460;10.892;2024-02-21T06:53:00;98245.44;;;5.90;100.00
73085;BME280;62974;49.460;10.892;2024-02-21T06:55:30;98242.97;;;5.89;100.00
73085;BME280;62974;49.460;10.892;2024-02-21T06:57:58;98249.69;;;6.01;100.00
73085;BME280;62974;49.460;10.892;2024-02-21T07:00:27;98244.81;;;5.96;100.00
73085;BME280;62974;49.460;10.892;2024-02-21T07:02:54;98242.66;;;6.00;100.00
73085;BME280;62974;49.460;10.892;2024-02-21T07:05:22;98238.97;;;5.93;100.00
73085;BME280;62974;49.460;10.892;2024-02-21T07:07:50;98243.66;;;5.99;100.00
73085;BME280;62974;49.460;10.892;2024-02-21T07:10:17;98238.31;;;5.99;100.00
73085;BME280;62974;49.460;10.892;2024-02-21T07:12:45;98242.78;;;5.90;100.00
73085;BME280;62974;49.460;10.892;2024-02-21T07:15:13;98252.63;;;5.98;100.00
73085;BME280;62974;49.460;10.892;2024-02-21T07:17:42;98256.03;;;6.08;100.00
73085;BME280;62974;49.460;10.892;2024-02-21T07:20:10;98251.34;;;6.10;100.00
73085;BME280;62974;49.460;10.892;2024-02-21T07:22:38;98247.84;;;6.09;100.00
73085;BME280;62974;49.460;10.892;2024-02-21T07:25:09;98250.50;;;6.09;100.00
73085;BME280;62974;49.460;10.892;2024-02-21T07:27:36;98246.00;;;6.02;100.00
73085;BME280;62974;49.460;10.892;2024-02-21T07:30:06;98252.19;;;6.10;100.00
73085;BME280;62974;49.460;10.892;2024-02-21T07:32:34;98250.69;;;6.08;100.00
73085;BME280;62974;49.460;10.892;2024-02-21T07:35:04;98253.91;;;6.20;100.00
73085;BME280;62974;49.460;10.892;2024-02-21T07:37:37;98257.19;;;6.13;100.00
73085;BME280;62974;49.460;10.892;2024-02-21T07:40:06;98254.72;;;6.20;100.00
73085;BME280;62974;49.460;10.892;2024-02-21T07:42:33;98244.72;;;6.22;100.00
73085;BME280;62974;49.460;10.892;2024-02-21T07:45:01;98242.41;;;6.27;100.00
73085;BME280;62974;49.460;10.892;2024-02-21T07:47:29;98244.41;;;6.25;100.00
73085;BME280;62974;49.460;10.892;2024-02-21T07:49:57;98244.56;;;6.24;100.00
73085;BME280;62974;49.460;10.892;2024-02-21T07:52:26;98244.41;;;6.25;100.00
73085;BME280;62974;49.460;10.892;2024-02-21T07:54:53;98257.09;;;6.31;100.00
73085;BME280;62974;49.460;10.892;2024-02-21T07:57:21;98262.28;;;6.33;100.00
73085;BME280;62974;49.460;10.892;2024-02-21T07:59:49;98254.78;;;6.36;100.00
73085;BME280;62974;49.460;10.892;2024-02-21T08:02:16;98243.94;;;6.38;100.00
73085;BME280;62974;49.460;10.892;2024-02-21T08:04:44;98246.81;;;6.44;100.00
73085;BME280;62974;49.460;10.892;2024-02-21T08:07:12;98250.31;;;6.45;100.00
73085;BME280;62974;49.460;10.892;2024-02-21T08:09:41;98243.81;;;6.47;100.00
73085;BME280;62974;49.460;10.892;2024-02-21T08:12:08;98239.31;;;6.48;100.00
73085;BME280;62974;49.460;10.892;2024-02-21T08:14:36;98234.13;;;6.46;100.00
73085;BME280;62974;49.460;10.892;2024-02-21T08:17:03;98226.59;;;6.42;100.00
73085;BME280;62974;49.460;10.892;2024-02-21T08:19:31;98223.63;;;6.37;100.00
73085;BME280;62974;49.460;10.892;2024-02-21T08:21:59;98230.13;;;6.42;100.00
73085;BME280;62974;49.460;10.892;2024-02-21T08:24:29;98238.94;;;6.43;100.00
73085;BME280;62974;49.460;10.892;2024-02-21T08:26:58;98244.63;;;6.48;100.00
73085;BME280;62974;49.460;10.892;2024-02-21T08:29:26;98256.97;;;6.57;100.00
73085;BME280;62974;49.460;10.892;2024-02-21T08:31:54;98250.16;;;6.63;100.00
73085;BME280;62974;49.460;10.892;2024-02-21T08:34:21;98255.66;;;6.69;100.00
73085;BME280;62974;49.460;10.892;2024-02-21T08:36:49;98252.50;;;6.74;100.00
73085;BME280;62974;49.460;10.892;2024-02-21T08:39:17;98249.34;;;6.78;100.00
73085;BME280;62974;49.460;10.892;2024-02-21T08:41:47;98250.53;;;6.92;100.00
73085;BME280;62974;49.460;10.892;2024-02-21T08:44:24;98239.16;;;6.90;100.00
73085;BME280;62974;49.460;10.892;2024-02-21T08:46:54;98234.50;;;6.84;100.00
73085;BME280;62974;49.460;10.892;2024-02-21T08:49:22;98221.16;;;6.92;100.00
73085;BME280;62974;49.460;10.892;2024-02-21T08:51:50;98231.00;;;6.91;100.00
73085;BME280;62974;49.460;10.892;2024-02-21T08:54:18;98227.50;;;6.91;100.00
73085;BME280;62974;49.460;10.892;2024-02-21T08:56:45;98238.81;;;6.93;100.00
73085;BME280;62974;49.460;10.892;2024-02-21T08:59:13;98233.69;;;6.99;100.00
73085;BME280;62974;49.460;10.892;2024-02-21T09:01:43;98232.84;;;6.99;100.00
73085;BME280;62974;49.460;10.892;2024-02-21T09:04:11;98236.84;;;7.03;100.00
73085;BME280;62974;49.460;10.892;2024-02-21T09:06:41;98246.69;;;7.02;100.00
73085;BME280;62974;49.460;10.892;2024-02-21T09:09:09;98238.31;;;7.14;100.00
73085;BME280;62974;49.460;10.892;2024-02-21T09:11:37;98235.00;;;7.20;100.00
73085;BME280;62974;49.460;10.892;2024-02-21T09:14:04;98237.81;;;7.18;100.00
73085;BME280;62974;49.460;10.892;2024-02-21T09:16:35;98234.16;;;7.19;100.00
73085;BME280;62974;49.460;10.892;2024-02-21T09:19:04;98235.16;;;7.26;100.00
73085;BME280;62974;49.460;10.892;2024-02-21T09:21:32;98245.19;;;7.24;100.00
73085;BME280;62974;49.460;10.892;2024-02-21T09:24:00;98240.50;;;7.26;100.00
73085;BME280;62974;49.460;10.892;2024-02-21T09:26:27;98231.97;;;7.23;100.00
73085;BME280;62974;49.460;10.892;2024-02-21T09:28:55;98232.31;;;7.28;100.00
73085;BME280;62974;49.460;10.892;2024-02-21T09:31:22;98240.16;;;7.29;100.00
73085;BME280;62974;49.460;10.892;2024-02-21T09:33:50;98234.31;;;7.26;100.00
73085;BME280;62974;49.460;10.892;2024-02-21T09:36:19;98229.63;;;7.36;100.00
73085;BME280;62974;49.460;10.892;2024-02-21T09:38:47;98244.13;;;7.49;100.00
73085;BME280;62974;49.460;10.892;2024-02-21T09:41:16;98240.63;;;7.49;100.00
73085;BME280;62974;49.460;10.892;2024-02-21T09:43:51;98239.25;;;7.61;100.00
73085;BME280;62974;49.460;10.892;2024-02-21T09:46:24;98234.91;;;7.68;100.00
73085;BME280;62974;49.460;10.892;2024-02-21T09:49:04;98225.72;;;7.63;100.00
73085;BME280;62974;49.460;10.892;2024-02-21T09:51:36;98231.09;;;7.54;100.00
73085;BME280;62974;49.460;10.892;2024-02-21T09:54:09;98222.56;;;7.59;100.00
73085;BME280;62974;49.460;10.892;2024-02-21T09:56:45;98222.91;;;7.56;100.00
73085;BME280;62974;49.460;10.892;2024-02-21T09:59:13;98218.91;;;7.60;100.00
73085;BME280;62974;49.460;10.892;2024-02-21T10:01:42;98211.84;;;7.75;100.00
73085;BME280;62974;49.460;10.892;2024-02-21T10:04:12;98205.31;;;7.70;100.00
73085;BME280;62974;49.460;10.892;2024-02-21T10:06:41;98191.56;;;7.81;100.00
73085;BME280;62974;49.460;10.892;2024-02-21T10:09:09;98200.47;;;7.73;100.00
73085;BME280;62974;49.460;10.892;2024-02-21T10:11:47;98194.06;;;7.90;100.00
73085;BME280;62974;49.460;10.892;2024-02-21T10:14:15;98188.59;;;7.76;100.00
73085;BME280;62974;49.460;10.892;2024-02-21T10:16:43;98201.91;;;7.92;100.00
73085;BME280;62974;49.460;10.892;2024-02-21T10:19:18;98185.72;;;7.85;100.00
73085;BME280;62974;49.460;10.892;2024-02-21T10:22:04;98190.53;;;7.90;100.00
73085;BME280;62974;49.460;10.892;2024-02-21T10:24:37;98186.91;;;8.14;100.00
73085;BME280;62974;49.460;10.892;2024-02-21T10:27:08;98189.84;;;8.27;100.00
73085;BME280;62974;49.460;10.892;2024-02-21T10:29:37;98189.28;;;8.09;100.00
73085;BME280;62974;49.460;10.892;2024-02-21T10:32:09;98188.59;;;8.15;100.00
73085;BME280;62974;49.460;10.892;2024-02-21T10:34:40;98189.38;;;8.23;100.00
73085;BME280;62974;49.460;10.892;2024-02-21T10:37:11;98179.84;;;8.21;100.00
73085;BME280;62974;49.460;10.892;2024-02-21T10:39:40;98182.34;;;8.30;100.00
73085;BME280;62974;49.460;10.892;2024-02-21T10:42:10;98171.59;;;8.38;100.00
73085;BME280;62974;49.460;10.892;2024-02-21T10:44:40;98167.66;;;8.49;100.00
73085;BME280;62974;49.460;10.892;2024-02-21T10:47:10;98171.06;;;8.43;100.00
73085;BME280;62974;49.460;10.892;2024-02-21T10:49:40;98157.19;;;8.39;100.00
73085;BME280;62974;49.460;10.892;2024-02-21T10:52:14;98161.19;;;8.66;100.00
73085;BME280;62974;49.460;10.892;2024-02-21T10:54:50;98157.19;;;8.62;100.00
73085;BME280;62974;49.460;10.892;2024-02-21T10:57:21;98162.78;;;8.75;100.00
73085;BME280;62974;49.460;10.892;2024-02-21T10:59:49;98157.88;;;8.56;100.00
73085;BME280;62974;49.460;10.892;2024-02-21T11:02:18;98145.22;;;8.73;100.00
73085;BME280;62974;49.460;10.892;2024-02-21T11:04:47;98148.50;;;8.83;100.00
73085;BME280;62974;49.460;10.892;2024-02-21T11:07:17;98141.75;;;8.64;100.00
73085;BME280;62974;49.460;10.892;2024-02-21T11:09:51;98150.34;;;8.82;100.00
73085;BME280;62974;49.460;10.892;2024-02-21T11:12:20;98134.19;;;8.90;100.00
73085;BME280;62974;49.460;10.892;2024-02-21T11:14:48;98126.53;;;8.87;100.00
73085;BME280;62974;49.460;10.892;2024-02-21T11:17:16;98112.75;;;8.90;100.00
73085;BME280;62974;49.460;10.892;2024-02-21T11:19:44;98112.94;;;8.89;100.00
73085;BME280;62974;49.460;10.892;2024-02-21T11:22:17;98099.84;;;9.09;100.00
73085;BME280;62974;49.460;10.892;2024-02-21T11:24:46;98094.84;;;8.91;100.00
73085;BME280;62974;49.460;10.892;2024-02-21T11:27:14;98089.88;;;9.03;100.00
73085;BME280;62974;49.460;10.892;2024-02-21T11:29:43;98087.56;;;9.14;100.00
73085;BME280;62974;49.460;10.892;2024-02-21T11:32:11;98096.91;;;9.18;100.00
73085;BME280;62974;49.460;10.892;2024-02-21T11:34:39;98075.09;;;9.07;100.00
73085;BME280;62974;49.460;10.892;2024-02-21T11:37:15;98072.97;;;9.17;100.00
73085;BME280;62974;49.460;10.892;2024-02-21T11:39:44;98071.41;;;9.22;100.00
73085;BME280;62974;49.460;10.892;2024-02-21T11:42:13;98060.47;;;9.53;100.00
73085;BME280;62974;49.460;10.892;2024-02-21T11:44:40;98064.94;;;9.31;100.00
73085;BME280;62974;49.460;10.892;2024-02-21T11:47:09;98057.34;;;9.50;100.00
73085;BME280;62974;49.460;10.892;2024-02-21T11:49:38;98060.34;;;9.61;100.00
73085;BME280;62974;49.460;10.892;2024-02-21T11:52:06;98055.22;;;9.45;100.00
73085;BME280;62974;49.460;10.892;2024-02-21T11:54:34;98053.09;;;9.55;100.00
73085;BME280;62974;49.460;10.892;2024-02-21T11:57:04;98039.53;;;9.78;100.00
73085;BME280;62974;49.460;10.892;2024-02-21T11:59:32;98043.66;;;9.59;100.00
73085;BME280;62974;49.460;10.892;2024-02-21T12:02:00;98031.53;;;9.63;100.00
73085;BME280;62974;49.460;10.892;2024-02-21T12:04:29;98015.25;;;9.86;100.00
73085;BME280;62974;49.460;10.892;2024-02-21T12:06:58;98015.94;;;9.73;100.00
73085;BME280;62974;49.460;10.892;2024-02-21T12:09:26;98015.13;;;9.73;100.00
73085;BME280;62974;49.460;10.892;2024-02-21T12:11:58;98015.44;;;9.63;100.00
73085;BME280;62974;49.460;10.892;2024-02-21T12:14:28;98018.03;;;9.57;100.00
73085;BME280;62974;49.460;10.892;2024-02-21T12:16:57;98010.69;;;9.65;100.00
73085;BME280;62974;49.460;10.892;2024-02-21T12:19:25;98009.31;;;9.69;100.00
73085;BME280;62974;49.460;10.892;2024-02-21T12:21:53;98011.72;;;9.64;100.00
73085;BME280;62974;49.460;10.892;2024-02-21T12:24:25;98001.06;;;9.92;100.00
73085;BME280;62974;49.460;10.892;2024-02-21T12:26:54;97995.38;;;9.80;100.00
73085;BME280;62974;49.460;10.892;2024-02-21T12:29:22;97996.78;;;9.76;100.00
73085;BME280;62974;49.460;10.892;2024-02-21T12:31:52;97989.84;;;9.82;100.00
73085;BME280;62974;49.460;10.892;2024-02-21T12:34:20;97993.28;;;9.76;100.00
73085;BME280;62974;49.460;10.892;2024-02-21T12:37:04;97980.53;;;9.78;100.00
73085;BME280;62974;49.460;10.892;2024-02-21T12:39:31;97966.03;;;9.94;100.00
73085;BME280;62974;49.460;10.892;2024-02-21T12:41:59;97963.38;;;10.00;100.00
73085;BME280;62974;49.460;10.892;2024-02-21T12:44:27;97957.59;;;9.97;100.00
73085;BME280;62974;49.460;10.892;2024-02-21T12:46:56;97951.16;;;9.91;100.00
73085;BME280;62974;49.460;10.892;2024-02-21T12:49:23;97952.16;;;9.90;100.00
73085;BME280;62974;49.460;10.892;2024-02-21T12:51:53;97937.25;;;10.30;100.00
73085;BME280;62974;49.460;10.892;2024-02-21T12:54:22;97930.19;;;10.01;100.00
73085;BME280;62974;49.460;10.892;2024-02-21T12:56:50;97929.91;;;9.96;100.00
73085;BME280;62974;49.460;10.892;2024-02-21T12:59:17;97923.72;;;10.17;100.00